Portada
METAR-TAF:

METAR-TAF

Aeroports :

Bangkok, Tailàndia

latitud: 13-54-45N, longitud: 100-36-24E, altitud: 4 m

Observació

L'informe es va fer fa 21 minuts, a les 14:00 UTC
Vent 8 kt del Sud
Temperatura 31°C
Humitat 59%
Pressió 1008 hPa
Visibilitat 10 km o més
Escasses núvols a una alçada de 4000 ft

METAR: VTBD 311400Z 19008KT 9999 FEW040 31/22 Q1008 NOSIG

Hora: 21:21 (14:21 UTC)

Pronòstic

L'informe es va fer fa 3 hores i 21 minuts, a les 11:00 UTC
Pronòstic vàlid del 31 a les 12 UTC al 01 a les 18 UTC
Vent 8 kt del Sud
Visibilitat: 9000 m
Escasses núvols a una alçada de 2500 ft
Evolucionant progressivament
l' 31 a les 22 UTC al 31 a les 24 UTC
Vent 5 kt del Sud-Est
Evolucionant progressivament
l' 01 a les 01 UTC al 01 a les 03 UTC
Vent 8 kt del Sud

TAF: VTBD 311100Z 3112/0118 19008KT 9000 FEW025 BECMG 3122/3124 13005KT BECMG 0101/0103 19008KT

Observacions i pronòstics meteorològics de més de 4000 aeroports (METAR i TAF).

Les estacions disponibles són els punts grocs i vermells al mapa.

Posi el ratolí al punt desitjat per veure el nom de l'estació.

Feu clic per veure les observacions i els pronòstics meteorològics.

Per canviar el mapa: feu clic els botons verds amb una creu de color negre per apropar; al botó verd amb un guió per allunyar la imatge; o en les fletxes verdes per a mapes adjacents.


METAR-TAF: